sensor_id;sensor_type;location;lat;lon;timestamp;pressure;altitude;pressure_sealevel;temperature;humidity
17362;BME280;8798;51.938;4.348;2023-12-20T00:01:41;101318.44;;;7.79;96.29
17362;BME280;8798;51.938;4.348;2023-12-20T00:04:09;101328.19;;;7.80;96.45
17362;BME280;8798;51.938;4.348;2023-12-20T00:06:37;101347.50;;;7.83;96.60
17362;BME280;8798;51.938;4.348;2023-12-20T00:09:07;101356.25;;;7.85;96.26
17362;BME280;8798;51.938;4.348;2023-12-20T00:11:35;101372.22;;;7.87;96.59
17362;BME280;8798;51.938;4.348;2023-12-20T00:14:03;101388.00;;;7.90;96.47
17362;BME280;8798;51.938;4.348;2023-12-20T00:16:31;101398.69;;;7.90;96.72
17362;BME280;8798;51.938;4.348;2023-12-20T00:18:59;101402.22;;;7.90;96.53
17362;BME280;8798;51.938;4.348;2023-12-20T00:21:28;101401.38;;;7.90;96.86
17362;BME280;8798;51.938;4.348;2023-12-20T00:23:56;101400.53;;;7.89;96.20
17362;BME280;8798;51.938;4.348;2023-12-20T00:26:25;101399.69;;;7.89;96.26
17362;BME280;8798;51.938;4.348;2023-12-20T00:28:55;101404.16;;;7.88;96.83
17362;BME280;8798;51.938;4.348;2023-12-20T00:31:23;101410.25;;;7.90;96.76
17362;BME280;8798;51.938;4.348;2023-12-20T00:33:51;101417.31;;;7.91;96.19
17362;BME280;8798;51.938;4.348;2023-12-20T00:36:19;101431.41;;;7.93;96.81
17362;BME280;8798;51.938;4.348;2023-12-20T00:38:47;101445.50;;;7.95;96.46
17362;BME280;8798;51.938;4.348;2023-12-20T00:41:16;101453.44;;;7.97;96.24
17362;BME280;8798;51.938;4.348;2023-12-20T00:43:46;101462.28;;;7.97;96.06
17362;BME280;8798;51.938;4.348;2023-12-20T00:46:14;101457.78;;;7.98;96.37
17362;BME280;8798;51.938;4.348;2023-12-20T00:48:43;101477.38;;;7.98;96.01
17362;BME280;8798;51.938;4.348;2023-12-20T00:51:12;101484.31;;;8.01;96.44
17362;BME280;8798;51.938;4.348;2023-12-20T00:53:40;101485.19;;;8.02;96.12
17362;BME280;8798;51.938;4.348;2023-12-20T00:56:08;101494.03;;;8.02;96.82
17362;BME280;8798;51.938;4.348;2023-12-20T00:58:36;101495.63;;;8.05;96.94
17362;BME280;8798;51.938;4.348;2023-12-20T01:01:06;101498.41;;;8.03;96.37
17362;BME280;8798;51.938;4.348;2023-12-20T01:03:34;101492.34;;;8.01;96.83
17362;BME280;8798;51.938;4.348;2023-12-20T01:06:03;101498.56;;;8.02;96.70
17362;BME280;8798;51.938;4.348;2023-12-20T01:08:32;101506.44;;;8.03;96.16
17362;BME280;8798;51.938;4.348;2023-12-20T01:11:03;101523.97;;;8.07;96.80
17362;BME280;8798;51.938;4.348;2023-12-20T01:13:31;101532.72;;;8.09;96.07
17362;BME280;8798;51.938;4.348;2023-12-20T01:16:00;101535.41;;;8.09;96.50
17362;BME280;8798;51.938;4.348;2023-12-20T01:18:29;101547.69;;;8.12;96.54
17362;BME280;8798;51.938;4.348;2023-12-20T01:21:01;101561.81;;;8.14;96.49
17362;BME280;8798;51.938;4.348;2023-12-20T01:23:29;101567.03;;;8.15;96.77
17362;BME280;8798;51.938;4.348;2023-12-20T01:25:59;101568.84;;;8.15;96.22
17362;BME280;8798;51.938;4.348;2023-12-20T01:28:27;101570.59;;;8.16;96.43
17362;BME280;8798;51.938;4.348;2023-12-20T01:30:55;101584.66;;;8.18;96.11
17362;BME280;8798;51.938;4.348;2023-12-20T01:33:23;101587.25;;;8.19;96.74
17362;BME280;8798;51.938;4.348;2023-12-20T01:36:02;101600.38;;;8.23;96.50
17362;BME280;8798;51.938;4.348;2023-12-20T01:38:30;101599.44;;;8.24;96.62
17362;BME280;8798;51.938;4.348;2023-12-20T01:40:59;101614.59;;;8.23;96.73
17362;BME280;8798;51.938;4.348;2023-12-20T01:43:27;101623.28;;;8.27;96.58
17362;BME280;8798;51.938;4.348;2023-12-20T01:45:59;101622.53;;;8.25;96.30
17362;BME280;8798;51.938;4.348;2023-12-20T01:48:28;101616.19;;;8.26;96.59
17362;BME280;8798;51.938;4.348;2023-12-20T01:51:00;101626.78;;;8.27;96.18
17362;BME280;8798;51.938;4.348;2023-12-20T01:53:29;101627.63;;;8.28;96.44
17362;BME280;8798;51.938;4.348;2023-12-20T01:55:59;101630.31;;;8.28;96.31
17362;BME280;8798;51.938;4.348;2023-12-20T01:58:27;101625.09;;;8.26;96.37
17362;BME280;8798;51.938;4.348;2023-12-20T02:00:56;101610.13;;;8.24;96.23
17362;BME280;8798;51.938;4.348;2023-12-20T02:03:25;101608.41;;;8.23;96.51
17362;BME280;8798;51.938;4.348;2023-12-20T02:05:53;101603.19;;;8.21;96.29
17362;BME280;8798;51.938;4.348;2023-12-20T02:08:23;101592.59;;;8.19;96.80
17362;BME280;8798;51.938;4.348;2023-12-20T02:10:51;101594.53;;;8.17;96.49
17362;BME280;8798;51.938;4.348;2023-12-20T02:13:20;101589.31;;;8.16;96.96
17362;BME280;8798;51.938;4.348;2023-12-20T02:15:48;101578.72;;;8.14;96.58
17362;BME280;8798;51.938;4.348;2023-12-20T02:18:16;101577.13;;;8.12;96.49
17362;BME280;8798;51.938;4.348;2023-12-20T02:20:44;101569.22;;;8.10;96.38
17362;BME280;8798;51.938;4.348;2023-12-20T02:23:14;101565.69;;;8.10;96.25
17362;BME280;8798;51.938;4.348;2023-12-20T02:25:42;101565.78;;;8.08;96.66
17362;BME280;8798;51.938;4.348;2023-12-20T02:28:10;101562.16;;;8.09;96.49
17362;BME280;8798;51.938;4.348;2023-12-20T02:30:38;101574.56;;;8.10;96.49
17362;BME280;8798;51.938;4.348;2023-12-20T02:33:08;101580.66;;;8.12;96.56
17362;BME280;8798;51.938;4.348;2023-12-20T02:35:39;101580.66;;;8.12;96.50
17362;BME280;8798;51.938;4.348;2023-12-20T02:38:07;101591.25;;;8.14;96.61
17362;BME280;8798;51.938;4.348;2023-12-20T02:40:37;101590.16;;;8.16;96.30
17362;BME280;8798;51.938;4.348;2023-12-20T02:43:05;101616.69;;;8.19;96.47
17362;BME280;8798;51.938;4.348;2023-12-20T02:45:33;101629.81;;;8.23;96.51
17362;BME280;8798;51.938;4.348;2023-12-20T02:48:11;101631.53;;;8.24;96.57
17362;BME280;8798;51.938;4.348;2023-12-20T02:50:39;101632.50;;;8.23;96.59
17362;BME280;8798;51.938;4.348;2023-12-20T02:53:07;101639.56;;;8.24;96.29
17362;BME280;8798;51.938;4.348;2023-12-20T02:55:37;101634.22;;;8.24;96.87
17362;BME280;8798;51.938;4.348;2023-12-20T02:58:05;101642.13;;;8.25;96.44
17362;BME280;8798;51.938;4.348;2023-12-20T03:00:33;101645.63;;;8.26;96.33
17362;BME280;8798;51.938;4.348;2023-12-20T03:03:02;101643.09;;;8.24;96.68
17362;BME280;8798;51.938;4.348;2023-12-20T03:05:30;101638.59;;;8.25;96.27
17362;BME280;8798;51.938;4.348;2023-12-20T03:07:59;101632.50;;;8.23;96.43
17362;BME280;8798;51.938;4.348;2023-12-20T03:10:30;101623.72;;;8.21;97.07
17362;BME280;8798;51.938;4.348;2023-12-20T03:12:59;101630.81;;;8.22;96.41
17362;BME280;8798;51.938;4.348;2023-12-20T03:15:27;101620.09;;;8.22;96.42
17362;BME280;8798;51.938;4.348;2023-12-20T03:17:56;101623.72;;;8.21;96.22
17362;BME280;8798;51.938;4.348;2023-12-20T03:20:26;101626.41;;;8.21;96.81
17362;BME280;8798;51.938;4.348;2023-12-20T03:22:54;101632.63;;;8.21;96.44
17362;BME280;8798;51.938;4.348;2023-12-20T03:25:22;101629.06;;;8.21;96.89
17362;BME280;8798;51.938;4.348;2023-12-20T03:27:53;101623.72;;;8.21;96.66
17362;BME280;8798;51.938;4.348;2023-12-20T03:30:22;101629.06;;;8.21;96.64
17362;BME280;8798;51.938;4.348;2023-12-20T03:32:50;101614.00;;;8.19;96.74
17362;BME280;8798;51.938;4.348;2023-12-20T03:35:25;101608.91;;;8.16;96.64
17362;BME280;8798;51.938;4.348;2023-12-20T03:37:53;101597.69;;;8.11;97.00
17362;BME280;8798;51.938;4.348;2023-12-20T03:40:21;101573.09;;;8.06;96.63
17362;BME280;8798;51.938;4.348;2023-12-20T03:42:49;101556.41;;;8.03;96.69
17362;BME280;8798;51.938;4.348;2023-12-20T03:45:18;101539.88;;;7.97;96.78
17362;BME280;8798;51.938;4.348;2023-12-20T03:47:48;101527.59;;;7.95;96.31
17362;BME280;8798;51.938;4.348;2023-12-20T03:50:17;101518.81;;;7.93;96.17
17362;BME280;8798;51.938;4.348;2023-12-20T03:52:45;101520.75;;;7.91;96.47
17362;BME280;8798;51.938;4.348;2023-12-20T03:55:13;101513.72;;;7.90;96.10
17362;BME280;8798;51.938;4.348;2023-12-20T03:57:41;101514.47;;;7.92;96.43
17362;BME280;8798;51.938;4.348;2023-12-20T04:00:11;101520.75;;;7.91;96.53
17362;BME280;8798;51.938;4.348;2023-12-20T04:02:39;101516.38;;;7.90;96.60
17362;BME280;8798;51.938;4.348;2023-12-20T04:05:09;101514.69;;;7.89;96.70
17362;BME280;8798;51.938;4.348;2023-12-20T04:07:38;101510.31;;;7.88;96.93
17362;BME280;8798;51.938;4.348;2023-12-20T04:10:07;101512.97;;;7.88;96.85
17362;BME280;8798;51.938;4.348;2023-12-20T04:12:35;101517.38;;;7.89;96.43
17362;BME280;8798;51.938;4.348;2023-12-20T04:15:04;101526.97;;;7.91;96.76
17362;BME280;8798;51.938;4.348;2023-12-20T04:17:36;101533.28;;;7.90;96.56
17362;BME280;8798;51.938;4.348;2023-12-20T04:20:05;101532.44;;;7.90;96.63
17362;BME280;8798;51.938;4.348;2023-12-20T04:22:35;101529.75;;;7.90;96.80
17362;BME280;8798;51.938;4.348;2023-12-20T04:25:04;101535.97;;;7.90;96.72
17362;BME280;8798;51.938;4.348;2023-12-20T04:27:32;101537.69;;;7.91;96.21
17362;BME280;8798;51.938;4.348;2023-12-20T04:30:00;101545.56;;;7.93;96.03
17362;BME280;8798;51.938;4.348;2023-12-20T04:32:29;101539.38;;;7.92;97.06
17362;BME280;8798;51.938;4.348;2023-12-20T04:35:00;101542.16;;;7.91;96.60
17362;BME280;8798;51.938;4.348;2023-12-20T04:37:28;101536.81;;;7.91;96.91
17362;BME280;8798;51.938;4.348;2023-12-20T04:39:58;101540.47;;;7.90;96.45
17362;BME280;8798;51.938;4.348;2023-12-20T04:42:26;101532.69;;;7.87;96.74
17362;BME280;8798;51.938;4.348;2023-12-20T04:44:54;101528.28;;;7.86;97.02
17362;BME280;8798;51.938;4.348;2023-12-20T04:47:22;101523.06;;;7.84;96.66
17362;BME280;8798;51.938;4.348;2023-12-20T04:49:50;101523.91;;;7.85;96.60
17362;BME280;8798;51.938;4.348;2023-12-20T04:52:19;101533.53;;;7.87;96.83
17362;BME280;8798;51.938;4.348;2023-12-20T04:54:47;101523.81;;;7.86;95.99
17362;BME280;8798;51.938;4.348;2023-12-20T04:57:17;101523.91;;;7.85;96.47
17362;BME280;8798;51.938;4.348;2023-12-20T04:59:45;101533.63;;;7.86;96.84
17362;BME280;8798;51.938;4.348;2023-12-20T05:02:13;101531.84;;;7.86;96.05
17362;BME280;8798;51.938;4.348;2023-12-20T05:04:41;101531.84;;;7.86;96.76
17362;BME280;8798;51.938;4.348;2023-12-20T05:07:09;101524.88;;;7.84;96.28
17362;BME280;8798;51.938;4.348;2023-12-20T05:09:37;101530.97;;;7.86;96.97
17362;BME280;8798;51.938;4.348;2023-12-20T05:12:06;101534.63;;;7.85;96.22
17362;BME280;8798;51.938;4.348;2023-12-20T05:14:36;101541.66;;;7.86;96.71
17362;BME280;8798;51.938;4.348;2023-12-20T05:17:35;101538.03;;;7.87;96.46
17362;BME280;8798;51.938;4.348;2023-12-20T05:20:04;101538.03;;;7.87;96.86
17362;BME280;8798;51.938;4.348;2023-12-20T05:22:33;101534.50;;;7.86;96.31
17362;BME280;8798;51.938;4.348;2023-12-20T05:25:01;101543.38;;;7.87;97.26
17362;BME280;8798;51.938;4.348;2023-12-20T05:27:29;101543.38;;;7.87;96.92
17362;BME280;8798;51.938;4.348;2023-12-20T05:30:00;101550.31;;;7.89;96.73
17362;BME280;8798;51.938;4.348;2023-12-20T05:32:28;101555.53;;;7.91;96.76
17362;BME280;8798;51.938;4.348;2023-12-20T05:34:56;101560.88;;;7.91;96.08
17362;BME280;8798;51.938;4.348;2023-12-20T05:37:25;101584.75;;;7.94;96.48
17362;BME280;8798;51.938;4.348;2023-12-20T05:39:53;101592.53;;;7.97;96.63
17362;BME280;8798;51.938;4.348;2023-12-20T05:42:21;101610.16;;;8.00;96.53
17362;BME280;8798;51.938;4.348;2023-12-20T05:44:49;101612.75;;;8.01;96.45
17362;BME280;8798;51.938;4.348;2023-12-20T05:47:21;101612.59;;;8.03;96.46
17362;BME280;8798;51.938;4.348;2023-12-20T05:49:53;101617.84;;;8.04;96.69
17362;BME280;8798;51.938;4.348;2023-12-20T05:52:21;101620.53;;;8.04;96.40
17362;BME280;8798;51.938;4.348;2023-12-20T05:54:50;101631.84;;;8.08;96.64
17362;BME280;8798;51.938;4.348;2023-12-20T05:57:19;101638.03;;;8.08;96.74
17362;BME280;8798;51.938;4.348;2023-12-20T05:59:47;101647.78;;;8.09;96.33
17362;BME280;8798;51.938;4.348;2023-12-20T06:02:15;101645.97;;;8.10;96.51
17362;BME280;8798;51.938;4.348;2023-12-20T06:04:45;101644.25;;;8.09;96.64
17362;BME280;8798;51.938;4.348;2023-12-20T06:07:16;101649.38;;;8.12;96.45
17362;BME280;8798;51.938;4.348;2023-12-20T06:09:44;101663.50;;;8.14;96.73
17362;BME280;8798;51.938;4.348;2023-12-20T06:12:12;101676.53;;;8.18;96.45
17362;BME280;8798;51.938;4.348;2023-12-20T06:14:40;101698.56;;;8.22;96.85
17362;BME280;8798;51.938;4.348;2023-12-20T06:17:09;101704.50;;;8.26;96.66
17362;BME280;8798;51.938;4.348;2023-12-20T06:19:40;101732.78;;;8.30;96.44
17362;BME280;8798;51.938;4.348;2023-12-20T06:22:11;101729.84;;;8.33;96.53
17362;BME280;8798;51.938;4.348;2023-12-20T06:24:39;101750.19;;;8.35;96.29
17362;BME280;8798;51.938;4.348;2023-12-20T06:27:07;101760.59;;;8.40;96.88
17362;BME280;8798;51.938;4.348;2023-12-20T06:29:35;101763.16;;;8.42;96.26
17362;BME280;8798;51.938;4.348;2023-12-20T06:32:03;101775.47;;;8.44;96.65
17362;BME280;8798;51.938;4.348;2023-12-20T06:34:32;101784.25;;;8.46;96.64
17362;BME280;8798;51.938;4.348;2023-12-20T06:37:00;101793.00;;;8.48;96.60
17362;BME280;8798;51.938;4.348;2023-12-20T06:39:29;101798.25;;;8.50;96.94
17362;BME280;8798;51.938;4.348;2023-12-20T06:41:58;101792.03;;;8.49;96.26
17362;BME280;8798;51.938;4.348;2023-12-20T06:44:26;101788.50;;;8.49;96.44
17362;BME280;8798;51.938;4.348;2023-12-20T06:46:54;101790.34;;;8.48;96.44
17362;BME280;8798;51.938;4.348;2023-12-20T06:49:22;101784.84;;;8.50;96.23
17362;BME280;8798;51.938;4.348;2023-12-20T06:51:50;101773.53;;;8.46;96.63
17362;BME280;8798;51.938;4.348;2023-12-20T06:54:19;101757.66;;;8.43;96.34
17362;BME280;8798;51.938;4.348;2023-12-20T06:56:50;101741.84;;;8.40;96.32
17362;BME280;8798;51.938;4.348;2023-12-20T06:59:18;101735.66;;;8.39;96.55
17362;BME280;8798;51.938;4.348;2023-12-20T07:01:47;101723.31;;;8.37;96.43
17362;BME280;8798;51.938;4.348;2023-12-20T07:04:16;101718.06;;;8.35;96.85
17362;BME280;8798;51.938;4.348;2023-12-20T07:06:47;101710.03;;;8.35;96.29
17362;BME280;8798;51.938;4.348;2023-12-20T07:09:18;101724.28;;;8.36;96.78
17362;BME280;8798;51.938;4.348;2023-12-20T07:11:46;101710.16;;;8.34;96.53
17362;BME280;8798;51.938;4.348;2023-12-20T07:14:16;101709.31;;;8.33;96.21
17362;BME280;8798;51.938;4.348;2023-12-20T07:16:45;101706.66;;;8.33;96.46
17362;BME280;8798;51.938;4.348;2023-12-20T07:19:13;101702.25;;;8.32;96.68
17362;BME280;8798;51.938;4.348;2023-12-20T07:21:41;101696.88;;;8.32;96.65
17362;BME280;8798;51.938;4.348;2023-12-20T07:24:09;101687.25;;;8.30;96.63
17362;BME280;8798;51.938;4.348;2023-12-20T07:26:37;101681.06;;;8.29;97.27
17362;BME280;8798;51.938;4.348;2023-12-20T07:29:06;101682.91;;;8.29;96.45
17362;BME280;8798;51.938;4.348;2023-12-20T07:31:35;101674.97;;;8.27;96.63
17362;BME280;8798;51.938;4.348;2023-12-20T07:34:15;101670.47;;;8.28;96.77
17362;BME280;8798;51.938;4.348;2023-12-20T07:36:44;101666.09;;;8.27;96.63
17362;BME280;8798;51.938;4.348;2023-12-20T07:39:12;101670.47;;;8.28;96.80
17362;BME280;8798;51.938;4.348;2023-12-20T07:41:40;101666.94;;;8.27;96.65
17362;BME280;8798;51.938;4.348;2023-12-20T07:44:10;101675.81;;;8.28;96.41
17362;BME280;8798;51.938;4.348;2023-12-20T07:46:38;101684.50;;;8.31;96.41
17362;BME280;8798;51.938;4.348;2023-12-20T07:49:07;101700.19;;;8.36;96.47
17362;BME280;8798;51.938;4.348;2023-12-20T07:51:37;101701.16;;;8.35;96.44
17362;BME280;8798;51.938;4.348;2023-12-20T07:54:05;101716.81;;;8.41;96.56
17362;BME280;8798;51.938;4.348;2023-12-20T07:56:34;101742.34;;;8.45;96.26
17362;BME280;8798;51.938;4.348;2023-12-20T07:59:02;101758.06;;;8.50;96.82
17362;BME280;8798;51.938;4.348;2023-12-20T08:01:31;101771.13;;;8.54;96.45
17362;BME280;8798;51.938;4.348;2023-12-20T08:04:03;101791.34;;;8.58;96.65
17362;BME280;8798;51.938;4.348;2023-12-20T08:06:32;101798.31;;;8.61;96.24
17362;BME280;8798;51.938;4.348;2023-12-20T08:09:00;101810.47;;;8.65;96.32
17362;BME280;8798;51.938;4.348;2023-12-20T08:11:32;101832.41;;;8.70;96.60
17362;BME280;8798;51.938;4.348;2023-12-20T08:14:00;101852.66;;;8.74;96.35
17362;BME280;8798;51.938;4.348;2023-12-20T08:16:28;101864.00;;;8.78;96.62
17362;BME280;8798;51.938;4.348;2023-12-20T08:18:57;101870.94;;;8.80;96.60
17362;BME280;8798;51.938;4.348;2023-12-20T08:21:26;101870.06;;;8.80;95.91
17362;BME280;8798;51.938;4.348;2023-12-20T08:24:01;101880.59;;;8.83;96.80
17362;BME280;8798;51.938;4.348;2023-12-20T08:26:29;101884.97;;;8.84;96.62
17362;BME280;8798;51.938;4.348;2023-12-20T08:28:57;101901.53;;;8.89;96.49
17362;BME280;8798;51.938;4.348;2023-12-20T08:31:28;101904.97;;;8.91;96.30
17362;BME280;8798;51.938;4.348;2023-12-20T08:33:59;101911.06;;;8.93;96.67
17362;BME280;8798;51.938;4.348;2023-12-20T08:36:29;101917.03;;;8.97;96.27
17362;BME280;8798;51.938;4.348;2023-12-20T08:38:58;101933.75;;;9.00;96.62
17362;BME280;8798;51.938;4.348;2023-12-20T08:41:27;101933.53;;;9.03;96.58
17362;BME280;8798;51.938;4.348;2023-12-20T08:43:55;101933.53;;;9.03;96.30
17362;BME280;8798;51.938;4.348;2023-12-20T08:46:24;101938.66;;;9.07;96.57
17362;BME280;8798;51.938;4.348;2023-12-20T08:48:54;101936.09;;;9.05;96.56
17362;BME280;8798;51.938;4.348;2023-12-20T08:51:25;101927.09;;;9.06;96.17
17362;BME280;8798;51.938;4.348;2023-12-20T08:53:55;101933.44;;;9.05;96.66
17362;BME280;8798;51.938;4.348;2023-12-20T08:56:23;101920.03;;;9.05;96.54
17362;BME280;8798;51.938;4.348;2023-12-20T08:58:51;101927.94;;;9.07;96.57
17362;BME280;8798;51.938;4.348;2023-12-20T09:01:20;101931.34;;;9.09;96.55
17362;BME280;8798;51.938;4.348;2023-12-20T09:03:48;101928.56;;;9.10;96.81
17362;BME280;8798;51.938;4.348;2023-12-20T09:06:16;101959.41;;;9.16;96.50
17362;BME280;8798;51.938;4.348;2023-12-20T09:08:45;101978.69;;;9.21;96.73
17362;BME280;8798;51.938;4.348;2023-12-20T09:11:14;101989.91;;;9.26;96.29
17362;BME280;8798;51.938;4.348;2023-12-20T09:13:45;102013.81;;;9.29;96.68
17362;BME280;8798;51.938;4.348;2023-12-20T09:16:14;102025.94;;;9.35;96.67
17362;BME280;8798;51.938;4.348;2023-12-20T09:18:42;102040.69;;;9.40;96.67
17362;BME280;8798;51.938;4.348;2023-12-20T09:21:11;102044.97;;;9.43;96.62
17362;BME280;8798;51.938;4.348;2023-12-20T09:23:41;102044.13;;;9.42;96.41
17362;BME280;8798;51.938;4.348;2023-12-20T09:26:09;102052.69;;;9.47;96.64
17362;BME280;8798;51.938;4.348;2023-12-20T09:28:38;102081.72;;;9.54;96.34
17362;BME280;8798;51.938;4.348;2023-12-20T09:31:07;102094.78;;;9.58;96.50
17362;BME280;8798;51.938;4.348;2023-12-20T09:33:46;102103.47;;;9.62;96.43
17362;BME280;8798;51.938;4.348;2023-12-20T09:36:14;102107.63;;;9.66;96.63
17362;BME280;8798;51.938;4.348;2023-12-20T09:38:42;102112.03;;;9.67;96.55
17362;BME280;8798;51.938;4.348;2023-12-20T09:41:13;102112.75;;;9.69;96.71
17362;BME280;8798;51.938;4.348;2023-12-20T09:43:43;102107.38;;;9.69;96.70
17362;BME280;8798;51.938;4.348;2023-12-20T09:46:12;102102.03;;;9.69;96.85
17362;BME280;8798;51.938;4.348;2023-12-20T09:48:44;102111.56;;;9.73;96.61
17362;BME280;8798;51.938;4.348;2023-12-20T09:51:13;102135.28;;;9.79;96.45
17362;BME280;8798;51.938;4.348;2023-12-20T09:53:43;102145.63;;;9.84;96.58
17362;BME280;8798;51.938;4.348;2023-12-20T09:56:12;102162.25;;;9.89;96.38
17362;BME280;8798;51.938;4.348;2023-12-20T09:58:40;102176.31;;;9.93;96.41
17362;BME280;8798;51.938;4.348;2023-12-20T10:01:10;102183.19;;;9.97;96.58
17362;BME280;8798;51.938;4.348;2023-12-20T10:03:40;102175.97;;;9.97;96.39
17362;BME280;8798;51.938;4.348;2023-12-20T10:06:09;102159.22;;;9.94;96.50
17362;BME280;8798;51.938;4.348;2023-12-20T10:08:38;102120.28;;;9.88;96.88
17362;BME280;8798;51.938;4.348;2023-12-20T10:11:06;102101.84;;;9.83;96.81
17362;BME280;8798;51.938;4.348;2023-12-20T10:13:39;102096.47;;;9.83;96.62
17362;BME280;8798;51.938;4.348;2023-12-20T10:16:07;102114.91;;;9.88;96.81
17362;BME280;8798;51.938;4.348;2023-12-20T10:18:37;102106.88;;;9.88;96.63
17362;BME280;8798;51.938;4.348;2023-12-20T10:21:06;102124.34;;;9.94;96.78
17362;BME280;8798;51.938;4.348;2023-12-20T10:23:34;102131.28;;;9.96;96.37
17362;BME280;8798;51.938;4.348;2023-12-20T10:26:02;102134.63;;;10.00;97.01
17362;BME280;8798;51.938;4.348;2023-12-20T10:28:33;102136.31;;;10.01;96.50
17362;BME280;8798;51.938;4.348;2023-12-20T10:31:02;102139.66;;;10.04;96.60
17362;BME280;8798;51.938;4.348;2023-12-20T10:33:31;102146.59;;;10.07;96.03
17362;BME280;8798;51.938;4.348;2023-12-20T10:36:01;102146.59;;;10.07;96.45
17362;BME280;8798;51.938;4.348;2023-12-20T10:38:30;102148.22;;;10.09;96.39
17362;BME280;8798;51.938;4.348;2023-12-20T10:40:59;102176.41;;;10.15;96.55
17362;BME280;8798;51.938;4.348;2023-12-20T10:43:30;102174.34;;;10.19;96.44
17362;BME280;8798;51.938;4.348;2023-12-20T10:46:00;102184.03;;;10.21;96.45
17362;BME280;8798;51.938;4.348;2023-12-20T10:48:31;102184.72;;;10.23;96.43
17362;BME280;8798;51.938;4.348;2023-12-20T10:51:04;102183.78;;;10.24;96.33
17362;BME280;8798;51.938;4.348;2023-12-20T10:53:33;102186.31;;;10.26;96.50
17362;BME280;8798;51.938;4.348;2023-12-20T10:56:04;102183.47;;;10.29;96.64
17362;BME280;8798;51.938;4.348;2023-12-20T10:58:35;102205.31;;;10.36;96.58
17362;BME280;8798;51.938;4.348;2023-12-20T11:01:08;102221.09;;;10.40;96.40
17362;BME280;8798;51.938;4.348;2023-12-20T11:03:36;102220.13;;;10.41;96.71
17362;BME280;8798;51.938;4.348;2023-12-20T11:06:10;102230.63;;;10.44;96.51
17362;BME280;8798;51.938;4.348;2023-12-20T11:08:48;102231.25;;;10.48;96.72
17362;BME280;8798;51.938;4.348;2023-12-20T11:11:23;102236.41;;;10.51;96.39
17362;BME280;8798;51.938;4.348;2023-12-20T11:13:57;102241.53;;;10.54;96.54
17362;BME280;8798;51.938;4.348;2023-12-20T11:16:37;102251.94;;;10.59;96.75
17362;BME280;8798;51.938;4.348;2023-12-20T11:19:18;102249.13;;;10.60;96.30
17362;BME280;8798;51.938;4.348;2023-12-20T11:21:47;102242.91;;;10.60;96.71
17362;BME280;8798;51.938;4.348;2023-12-20T11:24:16;102232.25;;;10.58;96.41
17362;BME280;8798;51.938;4.348;2023-12-20T11:26:46;102212.59;;;10.58;96.40
17362;BME280;8798;51.938;4.348;2023-12-20T11:29:32;102212.50;;;10.59;96.43
17362;BME280;8798;51.938;4.348;2023-12-20T11:32:01;102195.63;;;10.57;96.84
17362;BME280;8798;51.938;4.348;2023-12-20T11:34:33;102196.38;;;10.59;96.76
17362;BME280;8798;51.938;4.348;2023-12-20T11:37:05;102204.19;;;10.62;96.37
17362;BME280;8798;51.938;4.348;2023-12-20T11:39:33;102213.75;;;10.66;96.20
17362;BME280;8798;51.938;4.348;2023-12-20T11:42:07;102210.81;;;10.69;96.62
17362;BME280;8798;51.938;4.348;2023-12-20T11:44:36;102224.84;;;10.73;96.44
17362;BME280;8798;51.938;4.348;2023-12-20T11:47:04;102245.91;;;10.79;96.15
17362;BME280;8798;51.938;4.348;2023-12-20T11:49:32;102222.78;;;10.76;96.56
17362;BME280;8798;51.938;4.348;2023-12-20T11:52:05;102208.63;;;10.74;96.59
17362;BME280;8798;51.938;4.348;2023-12-20T11:54:33;102208.63;;;10.74;96.83
17362;BME280;8798;51.938;4.348;2023-12-20T11:57:01;102188.09;;;10.73;96.63
17362;BME280;8798;51.938;4.348;2023-12-20T11:59:30;102171.97;;;10.73;96.88
17362;BME280;8798;51.938;4.348;2023-12-20T12:01:59;102175.63;;;10.72;96.16
17362;BME280;8798;51.938;4.348;2023-12-20T12:04:31;102177.22;;;10.75;96.14
17362;BME280;8798;51.938;4.348;2023-12-20T12:07:26;102174.31;;;10.78;96.77
17362;BME280;8798;51.938;4.348;2023-12-20T12:10:04;102195.41;;;10.83;96.29
17362;BME280;8798;51.938;4.348;2023-12-20T12:12:35;102184.56;;;10.84;96.23
17362;BME280;8798;51.938;4.348;2023-12-20T12:15:12;102189.84;;;10.86;96.62
17362;BME280;8798;51.938;4.348;2023-12-20T12:17:40;102178.09;;;10.87;96.63
17362;BME280;8798;51.938;4.348;2023-12-20T12:20:09;102186.03;;;10.88;96.79
17362;BME280;8798;51.938;4.348;2023-12-20T12:22:40;102189.34;;;10.92;96.20
17362;BME280;8798;51.938;4.348;2023-12-20T12:25:12;102183.97;;;10.92;96.67
17362;BME280;8798;51.938;4.348;2023-12-20T12:27:42;102162.56;;;10.90;96.56
17362;BME280;8798;51.938;4.348;2023-12-20T12:30:11;102154.75;;;10.87;96.91
17362;BME280;8798;51.938;4.348;2023-12-20T12:32:40;102140.34;;;10.88;96.65
17362;BME280;8798;51.938;4.348;2023-12-20T12:35:09;102137.66;;;10.88;96.79
17362;BME280;8798;51.938;4.348;2023-12-20T12:37:40;102131.28;;;10.89;96.68
17362;BME280;8798;51.938;4.348;2023-12-20T12:40:10;102134.81;;;10.90;96.04
17362;BME280;8798;51.938;4.348;2023-12-20T12:42:39;102125.66;;;10.92;96.38
17362;BME280;8798;51.938;4.348;2023-12-20T12:45:07;102105.25;;;10.90;96.48
17362;BME280;8798;51.938;4.348;2023-12-20T12:47:36;102100.88;;;10.89;96.73
17362;BME280;8798;51.938;4.348;2023-12-20T12:50:04;102101.59;;;10.91;96.38
17362;BME280;8798;51.938;4.348;2023-12-20T12:52:33;102107.72;;;10.93;96.31
17362;BME280;8798;51.938;4.348;2023-12-20T12:55:04;102099.66;;;10.93;97.03
17362;BME280;8798;51.938;4.348;2023-12-20T12:57:32;102082.78;;;10.91;96.66
17362;BME280;8798;51.938;4.348;2023-12-20T13:00:01;102070.47;;;10.88;96.31
17362;BME280;8798;51.938;4.348;2023-12-20T13:02:31;102040.41;;;10.83;96.18
17362;BME280;8798;51.938;4.348;2023-12-20T13:04:59;102021.69;;;10.82;96.31
17362;BME280;8798;51.938;4.348;2023-12-20T13:07:29;102025.13;;;10.84;96.43
17362;BME280;8798;51.938;4.348;2023-12-20T13:09:57;102012.78;;;10.81;96.70
17362;BME280;8798;51.938;4.348;2023-12-20T13:12:27;101995.06;;;10.79;96.34
17362;BME280;8798;51.938;4.348;2023-12-20T13:14:56;101994.09;;;10.80;96.69
17362;BME280;8798;51.938;4.348;2023-12-20T13:17:24;101992.97;;;10.82;96.57
17362;BME280;8798;51.938;4.348;2023-12-20T13:19:55;101992.13;;;10.82;96.34